Terminal Aerodrome Forecast
Issued by NWS Tulsa, OK

Home | Current Version | Previous Version | Text Only | Print | Product List | Glossary On
Versions: 1 2 3 4 5 6 7 8 9 10 11 12 13 14 15 16 17
104
FTUS44 KTSA 291128
TAFTUL
TAF
KTUL 291128Z 2912/3012 VRB03KT P6SM SCT040 BKN250
      TEMPO 2913/2917 5SM -TSRA BKN040CB
     FM291800 13007KT P6SM SCT050 BKN250
     FM300200 10005KT P6SM SCT050 BKN250 PROB30 3006/3012 5SM -TSRA
      BKN050CB=

USA.gov is the U.S. government's official web portal to all federal, state and local government web resources and services.